Time;durP1;ratioP1;P1;durP2;ratioP2;P2;SDS_P1;SDS_P2;PMS_P1;PMS_P2;Temp;Humidity;BMP_temperature;BMP_pressure;BME280_temperature;BME280_humidity;BME280_pressure;Samples;Min_cycle;Max_cycle;Signal;HPM_P1;HPM_P2
2022/06/13 00:02:20;;;;;;;18.35;8.38;;;;;;;;;;4930890;28;20024;-64
2022/06/13 00:04:46;;;;;;;18.60;9.02;;;;;;;;;;4913848;28;20028;-65
2022/06/13 00:07:12;;;;;;;18.90;8.68;;;;;;;;;;4931963;28;20028;-63
2022/06/13 00:09:38;;;;;;;16.73;8.05;;;;;;;;;;4932188;29;20050;-64
2022/06/13 00:12:04;;;;;;;21.10;8.52;;;;;;;;;;4932213;29;20028;-66
2022/06/13 00:14:30;;;;;;;20.15;9.40;;;;;;;;;;4933279;29;20047;-65
2022/06/13 00:16:56;;;;;;;19.25;8.63;;;;;;;;;;4932381;28;20476;-64
2022/06/13 00:19:22;;;;;;;19.85;9.32;;;;;;;;;;4931712;29;20066;-64
2022/06/13 00:21:48;;;;;;;19.83;9.80;;;;;;;;;;4915607;28;20028;-64
2022/06/13 00:24:14;;;;;;;20.58;9.07;;;;;;;;;;4932643;29;20028;-63
2022/06/13 00:26:40;;;;;;;20.25;9.00;;;;;;;;;;4932616;28;20036;-66
2022/06/13 00:29:06;;;;;;;19.33;9.27;;;;;;;;;;4914882;28;20024;-65
2022/06/13 00:31:32;;;;;;;22.98;8.82;;;;;;;;;;4915674;28;20028;-64
2022/06/13 00:33:58;;;;;;;21.10;8.85;;;;;;;;;;4915284;28;20035;-64
2022/06/13 00:36:24;;;;;;;20.10;9.50;;;;;;;;;;4915449;28;20552;-63
2022/06/13 00:38:51;;;;;;;20.90;9.48;;;;;;;;;;4914719;28;20031;-64
2022/06/13 00:41:20;;;;;;;20.88;9.65;;;;;;;;;;4932426;29;20031;-64
2022/06/13 00:43:47;;;;;;;21.05;9.55;;;;;;;;;;4932492;28;20032;-65
2022/06/13 00:46:17;;;;;;;16.48;8.70;;;;;;;;;;4932417;29;20028;-65
2022/06/13 00:48:44;;;;;;;20.40;8.82;;;;;;;;;;4931603;29;20024;-64
2022/06/13 00:51:10;;;;;;;19.55;9.10;;;;;;;;;;4932482;29;20488;-63
2022/06/13 00:53:36;;;;;;;19.35;9.18;;;;;;;;;;4915155;28;20492;-65
2022/06/13 00:56:07;;;;;;;21.35;9.57;;;;;;;;;;4915231;28;20028;-63
2022/06/13 00:58:39;;;;;;;20.40;9.48;;;;;;;;;;4931450;29;20035;-64
2022/06/13 01:01:06;;;;;;;20.88;9.25;;;;;;;;;;4915281;28;20030;-64
2022/06/13 01:03:33;;;;;;;22.33;9.65;;;;;;;;;;4915115;28;20024;-64
2022/06/13 01:06:00;;;;;;;19.50;9.35;;;;;;;;;;4914981;28;20032;-63
2022/06/13 01:08:27;;;;;;;17.88;8.52;;;;;;;;;;4914431;28;20058;-64
2022/06/13 01:13:42;;;;;;;19.77;9.18;;;;;;;;;;4932031;29;20128;-64
2022/06/13 01:16:16;;;;;;;18.88;9.15;;;;;;;;;;4931869;28;20105;-64
2022/06/13 01:18:42;;;;;;;19.85;9.35;;;;;;;;;;4931157;29;20067;-64
2022/06/13 01:21:12;;;;;;;21.00;8.80;;;;;;;;;;4914729;28;20067;-64
2022/06/13 01:23:38;;;;;;;21.45;8.82;;;;;;;;;;4931906;29;20027;-64
2022/06/13 01:26:07;;;;;;;17.77;8.82;;;;;;;;;;4915016;28;20032;-64
2022/06/13 01:28:42;;;;;;;19.25;9.10;;;;;;;;;;4931087;29;20024;-63
2022/06/13 01:31:14;;;;;;;19.50;9.30;;;;;;;;;;4914609;28;20122;-64
2022/06/13 01:33:49;;;;;;;21.35;9.18;;;;;;;;;;4950394;23;20047;-60
2022/06/13 01:36:45;;;;;;;16.52;8.75;;;;;;;;;;4952985;29;20515;-59
2022/06/13 01:39:23;;;;;;;18.65;9.68;;;;;;;;;;4969497;28;20054;-61
2022/06/13 01:41:52;;;;;;;21.65;9.18;;;;;;;;;;4952552;29;20037;-60
2022/06/13 01:44:21;;;;;;;17.02;8.90;;;;;;;;;;4935484;29;20036;-61
2022/06/13 01:47:04;;;;;;;18.92;9.32;;;;;;;;;;4935688;28;20027;-61
2022/06/13 01:49:30;;;;;;;19.88;9.57;;;;;;;;;;4952521;28;20024;-61
2022/06/13 01:52:06;;;;;;;22.10;10.07;;;;;;;;;;4935737;28;20438;-60
2022/06/13 01:54:42;;;;;;;16.80;9.50;;;;;;;;;;4935433;28;20555;-61
2022/06/13 01:57:17;;;;;;;18.55;9.23;;;;;;;;;;4952437;29;20418;-57
2022/06/13 02:00:12;;;;;;;17.10;9.32;;;;;;;;;;4952523;28;20027;-60
2022/06/13 02:02:47;;;;;;;22.02;10.43;;;;;;;;;;4952738;29;20043;-60
2022/06/13 02:05:22;;;;;;;20.90;9.38;;;;;;;;;;4935488;28;20122;-60
2022/06/13 02:07:51;;;;;;;24.00;9.77;;;;;;;;;;4951895;28;20483;-60
2022/06/13 02:10:24;;;;;;;22.42;11.10;;;;;;;;;;4935360;28;20517;-60
2022/06/13 02:12:53;;;;;;;21.33;10.23;;;;;;;;;;4952349;28;20046;-60
2022/06/13 02:15:22;;;;;;;20.60;10.30;;;;;;;;;;4952423;28;20089;-60
2022/06/13 02:17:51;;;;;;;19.45;9.43;;;;;;;;;;4951712;28;20047;-60
2022/06/13 02:20:19;;;;;;;;;;;;;;;;;;4952665;28;20074;-60
2022/06/13 02:22:52;;;;;;;18.57;10.33;;;;;;;;;;4952271;28;19910;-59
2022/06/13 02:25:23;;;;;;;18.85;10.25;;;;;;;;;;4952267;28;20031;-59
2022/06/13 02:27:56;;;;;;;23.13;10.65;;;;;;;;;;4934492;28;20391;-59
2022/06/13 02:30:25;;;;;;;23.58;9.88;;;;;;;;;;4952393;28;20027;-58
2022/06/13 02:32:50;;;;;;;20.33;11.05;;;;;;;;;;4952084;29;20103;-59
2022/06/13 02:35:37;;;;;;;19.15;10.43;;;;;;;;;;4934688;28;20126;-60
2022/06/13 02:38:17;;;;;;;28.55;11.15;;;;;;;;;;4951308;29;20046;-58
2022/06/13 02:40:46;;;;;;;23.23;10.85;;;;;;;;;;4952200;29;20038;-60
2022/06/13 02:43:15;;;;;;;22.42;10.70;;;;;;;;;;4950662;28;20023;-59
2022/06/13 02:45:48;;;;;;;22.77;11.02;;;;;;;;;;4952176;28;20106;-60
2022/06/13 02:48:20;;;;;;;24.05;11.70;;;;;;;;;;4933791;28;20028;-60
2022/06/13 02:51:06;;;;;;;20.45;11.90;;;;;;;;;;4951673;29;20110;-61
2022/06/13 02:53:51;;;;;;;19.63;10.82;;;;;;;;;;4951663;29;20081;-60
2022/06/13 02:57:23;;;;;;;24.52;11.57;;;;;;;;;;4951946;28;20035;-61
2022/06/13 02:59:50;;;;;;;19.27;10.45;;;;;;;;;;4950977;28;20078;-61
2022/06/13 03:02:19;;;;;;;21.65;10.77;;;;;;;;;;4951577;29;20143;-62
2022/06/13 03:04:51;;;;;;;21.67;10.98;;;;;;;;;;4951481;28;20031;-61
2022/06/13 03:07:24;;;;;;;25.13;13.32;;;;;;;;;;4950892;29;20030;-61
2022/06/13 03:09:56;;;;;;;22.77;11.30;;;;;;;;;;4934396;28;20023;-59
2022/06/13 03:12:29;;;;;;;21.63;11.25;;;;;;;;;;4951362;28;20114;-61
2022/06/13 03:15:00;;;;;;;20.45;10.48;;;;;;;;;;4951276;29;20031;-61
2022/06/13 03:17:32;;;;;;;23.17;10.63;;;;;;;;;;4950553;28;20146;-61
2022/06/13 03:20:08;;;;;;;22.55;11.00;;;;;;;;;;4951540;28;20102;-61
2022/06/13 03:22:44;;;;;;;23.15;10.75;;;;;;;;;;4951490;28;20028;-61
2022/06/13 03:25:15;;;;;;;19.45;10.68;;;;;;;;;;4934038;28;20480;-61
2022/06/13 03:28:08;;;;;;;22.83;11.32;;;;;;;;;;4950514;28;20119;-60
2022/06/13 03:30:38;;;;;;;23.50;12.10;;;;;;;;;;4950974;29;20106;-62
2022/06/13 03:35:52;;;;;;;21.92;10.30;;;;;;;;;;4951034;29;20130;-61
2022/06/13 03:38:21;;;;;;;20.15;10.02;;;;;;;;;;4950153;29;20027;-61
2022/06/13 03:40:50;;;;;;;21.15;10.75;;;;;;;;;;4950834;29;20125;-60
2022/06/13 03:43:38;;;;;;;19.13;10.27;;;;;;;;;;4950917;29;20050;-61
2022/06/13 03:46:10;;;;;;;21.92;11.38;;;;;;;;;;4950858;29;20062;-60
2022/06/13 03:48:36;;;;;;;22.98;14.77;;;;;;;;;;4949809;29;20031;-61
2022/06/13 03:51:08;;;;;;;25.90;17.50;;;;;;;;;;4950589;29;20045;-60
2022/06/13 03:53:39;;;;;;;27.00;18.60;;;;;;;;;;4950206;29;20110;-61
2022/06/13 03:56:14;;;;;;;26.33;19.42;;;;;;;;;;4950523;28;20031;-61
2022/06/13 03:58:43;;;;;;;27.20;19.85;;;;;;;;;;4932664;28;20438;-60
2022/06/13 04:01:12;;;;;;;25.73;20.45;;;;;;;;;;4950419;29;20042;-61
2022/06/13 04:03:38;;;;;;;24.55;21.95;;;;;;;;;;4950243;28;20081;-60
2022/06/13 04:06:27;;;;;;;24.20;21.75;;;;;;;;;;4950491;29;20023;-61
2022/06/13 04:08:53;;;;;;;26.50;22.90;;;;;;;;;;4949420;29;20055;-61
2022/06/13 04:11:28;;;;;;;30.40;27.50;;;;;;;;;;4950547;28;20024;-61
2022/06/13 04:14:12;;;;;;;29.95;26.73;;;;;;;;;;4951309;29;20055;-61
2022/06/13 04:16:44;;;;;;;32.25;29.40;;;;;;;;;;4951002;28;20488;-61
2022/06/13 04:19:10;;;;;;;32.50;29.48;;;;;;;;;;4949870;28;20035;-62
2022/06/13 04:21:36;;;;;;;31.65;28.73;;;;;;;;;;4950419;29;20109;-61
2022/06/13 04:24:05;;;;;;;32.03;29.17;;;;;;;;;;4950363;28;20081;-61
2022/06/13 04:26:34;;;;;;;34.05;30.98;;;;;;;;;;4950710;28;20047;-61
2022/06/13 04:29:04;;;;;;;32.38;29.58;;;;;;;;;;4949620;28;20028;-61
2022/06/13 04:31:32;;;;;;;31.13;27.95;;;;;;;;;;4933576;28;20078;-61
2022/06/13 04:34:16;;;;;;;29.87;27.13;;;;;;;;;;4949993;28;20488;-62
2022/06/13 04:36:43;;;;;;;28.98;26.35;;;;;;;;;;4949861;28;20487;-61
2022/06/13 04:39:10;;;;;;;28.40;25.73;;;;;;;;;;4949345;28;20364;-60
2022/06/13 04:41:39;;;;;;;27.30;24.38;;;;;;;;;;4949534;28;20237;-61
2022/06/13 04:44:05;;;;;;;26.35;23.85;;;;;;;;;;4949623;29;20036;-61
2022/06/13 04:46:33;;;;;;;25.83;23.33;;;;;;;;;;4949840;28;20472;-61
2022/06/13 04:49:04;;;;;;;27.57;24.67;;;;;;;;;;4949008;28;20158;-60
2022/06/13 04:51:41;;;;;;;24.42;22.02;;;;;;;;;;4932620;28;20449;-61
2022/06/13 04:54:12;;;;;;;22.83;20.52;;;;;;;;;;4949681;28;20110;-61
2022/06/13 04:56:38;;;;;;;22.75;19.48;;;;;;;;;;4932699;28;20031;-61
2022/06/13 04:59:05;;;;;;;23.58;19.73;;;;;;;;;;4949230;29;20483;-61
2022/06/13 05:01:33;;;;;;;27.55;21.05;;;;;;;;;;4932277;28;20023;-62
2022/06/13 05:04:01;;;;;;;23.08;20.48;;;;;;;;;;4949427;28;20031;-61
2022/06/13 05:06:27;;;;;;;24.30;21.65;;;;;;;;;;4951571;28;20027;-61
2022/06/13 05:08:56;;;;;;;24.85;22.25;;;;;;;;;;4951858;28;20038;-61
2022/06/13 05:11:33;;;;;;;25.98;23.23;;;;;;;;;;4952872;28;20093;-60
2022/06/13 05:14:02;;;;;;;25.27;22.73;;;;;;;;;;4952693;28;20049;-61
2022/06/13 05:16:28;;;;;;;25.10;22.58;;;;;;;;;;4952529;29;20142;-61
2022/06/13 05:18:57;;;;;;;24.23;21.73;;;;;;;;;;4951969;28;20435;-60
2022/06/13 05:21:34;;;;;;;24.98;22.27;;;;;;;;;;4952491;28;20035;-61
2022/06/13 05:24:18;;;;;;;24.50;21.95;;;;;;;;;;4952901;28;20035;-61
2022/06/13 05:26:44;;;;;;;23.30;20.50;;;;;;;;;;4952702;28;20027;-61
2022/06/13 05:29:13;;;;;;;22.27;19.00;;;;;;;;;;4951949;28;20513;-61
2022/06/13 05:31:39;;;;;;;22.38;20.05;;;;;;;;;;4952644;28;20462;-62
2022/06/13 05:34:06;;;;;;;22.95;18.95;;;;;;;;;;4952429;28;20089;-62
2022/06/13 05:36:32;;;;;;;25.13;19.75;;;;;;;;;;4952539;29;20027;-62
2022/06/13 05:39:02;;;;;;;21.23;18.85;;;;;;;;;;4951608;28;20035;-61
2022/06/13 05:41:28;;;;;;;19.83;16.40;;;;;;;;;;4952437;29;20046;-61
2022/06/13 05:43:55;;;;;;;24.05;15.40;;;;;;;;;;4952453;28;20027;-62
2022/06/13 05:46:27;;;;;;;20.70;14.63;;;;;;;;;;4934995;28;20095;-60
2022/06/13 05:48:54;;;;;;;21.38;14.32;;;;;;;;;;4951225;29;20023;-61
2022/06/13 05:51:20;;;;;;;20.65;14.57;;;;;;;;;;4952405;28;20023;-61
2022/06/13 05:53:46;;;;;;;22.17;14.77;;;;;;;;;;4952257;28;20023;-63
2022/06/13 05:56:12;;;;;;;23.35;14.23;;;;;;;;;;4952340;28;20426;-61
2022/06/13 05:58:38;;;;;;;19.30;14.45;;;;;;;;;;4951074;28;20462;-61
2022/06/13 06:01:05;;;;;;;19.08;12.95;;;;;;;;;;4952228;29;20078;-59
2022/06/13 06:03:32;;;;;;;18.48;12.07;;;;;;;;;;4952184;29;20031;-60
2022/06/13 06:05:58;;;;;;;20.02;11.98;;;;;;;;;;4935241;28;20106;-61
2022/06/13 06:08:29;;;;;;;20.73;12.68;;;;;;;;;;4951310;28;20047;-61
2022/06/13 06:10:56;;;;;;;19.65;12.93;;;;;;;;;;4952163;29;20105;-60
2022/06/13 06:13:22;;;;;;;21.25;12.75;;;;;;;;;;4952005;29;20023;-59
2022/06/13 06:15:49;;;;;;;17.65;12.20;;;;;;;;;;4952628;28;20035;-60
2022/06/13 06:18:16;;;;;;;20.95;12.63;;;;;;;;;;4951996;28;20076;-61
2022/06/13 06:20:42;;;;;;;23.25;13.38;;;;;;;;;;4951490;29;20031;-61
2022/06/13 06:23:09;;;;;;;18.70;12.30;;;;;;;;;;4934886;28;20537;-61
2022/06/13 06:25:36;;;;;;;20.85;12.50;;;;;;;;;;4952342;29;20028;-61
2022/06/13 06:28:02;;;;;;;18.75;12.02;;;;;;;;;;4951375;28;20024;-61
2022/06/13 06:30:28;;;;;;;18.30;12.20;;;;;;;;;;4951790;29;20031;-60
2022/06/13 06:32:55;;;;;;;20.35;12.05;;;;;;;;;;4951971;28;20107;-61
2022/06/13 06:35:22;;;;;;;21.55;12.38;;;;;;;;;;4934574;28;20054;-61
2022/06/13 06:37:49;;;;;;;19.75;12.32;;;;;;;;;;4950909;28;20067;-60
2022/06/13 06:40:16;;;;;;;19.27;11.93;;;;;;;;;;4951756;28;20376;-61
2022/06/13 06:42:42;;;;;;;19.45;12.25;;;;;;;;;;4951445;29;20482;-62
2022/06/13 06:45:09;;;;;;;23.00;13.20;;;;;;;;;;4951936;28;20509;-62
2022/06/13 06:47:36;;;;;;;20.85;12.82;;;;;;;;;;4951176;28;20034;-61
2022/06/13 06:50:03;;;;;;;20.25;13.02;;;;;;;;;;4951425;29;20023;-61
2022/06/13 06:52:29;;;;;;;19.83;12.77;;;;;;;;;;4951410;28;20031;-62
2022/06/13 07:00:24;;;;;;;22.80;13.48;;;;;;;;;;4951577;29;20038;-61
2022/06/13 07:02:51;;;;;;;23.38;14.30;;;;;;;;;;4952406;28;20036;-62
2022/06/13 07:05:17;;;;;;;24.02;14.35;;;;;;;;;;4934174;28;20058;-62
2022/06/13 07:07:43;;;;;;;24.00;12.65;;;;;;;;;;4950667;29;20023;-61
2022/06/13 07:10:13;;;;;;;22.30;12.73;;;;;;;;;;4951295;29;20063;-61
2022/06/13 07:12:40;;;;;;;21.73;13.18;;;;;;;;;;4934165;28;20023;-61
2022/06/13 07:15:06;;;;;;;21.73;13.75;;;;;;;;;;4951115;28;20028;-60
2022/06/13 07:17:32;;;;;;;20.58;12.77;;;;;;;;;;4950355;29;20035;-61
2022/06/13 07:19:58;;;;;;;21.30;13.05;;;;;;;;;;4934584;28;20114;-61
2022/06/13 07:22:26;;;;;;;25.33;13.27;;;;;;;;;;4934304;28;20529;-60
2022/06/13 07:24:53;;;;;;;26.08;13.10;;;;;;;;;;4951257;29;20019;-60
2022/06/13 07:27:19;;;;;;;21.42;13.15;;;;;;;;;;4950528;28;20024;-61
2022/06/13 07:29:45;;;;;;;24.92;12.13;;;;;;;;;;4950569;28;20081;-61
2022/06/13 07:32:16;;;;;;;28.33;14.75;;;;;;;;;;4951566;28;20087;-61
2022/06/13 07:34:44;;;;;;;25.42;13.88;;;;;;;;;;4953991;23;20525;-63
2022/06/13 07:37:14;;;;;;;21.75;13.50;;;;;;;;;;4951970;29;20038;-62
2022/06/13 07:39:40;;;;;;;24.33;13.68;;;;;;;;;;4934849;29;20026;-63
2022/06/13 07:42:06;;;;;;;24.30;13.77;;;;;;;;;;4934566;29;20039;-64
2022/06/13 07:44:34;;;;;;;23.42;14.75;;;;;;;;;;4934688;29;20027;-63
2022/06/13 07:47:00;;;;;;;26.80;13.63;;;;;;;;;;4934775;28;20024;-62
2022/06/13 07:49:27;;;;;;;19.17;12.27;;;;;;;;;;4933601;28;20065;-63
2022/06/13 07:51:53;;;;;;;27.42;13.30;;;;;;;;;;4951603;28;20027;-64
2022/06/13 07:54:19;;;;;;;24.00;12.55;;;;;;;;;;4951631;28;20495;-63
2022/06/13 07:56:45;;;;;;;27.35;13.15;;;;;;;;;;4951697;28;20084;-64
2022/06/13 07:59:15;;;;;;;26.45;13.93;;;;;;;;;;4933483;28;20423;-64
2022/06/13 08:01:41;;;;;;;24.33;13.32;;;;;;;;;;4951638;28;20051;-64
2022/06/13 08:04:07;;;;;;;26.77;14.32;;;;;;;;;;4951738;28;20023;-63
2022/06/13 08:06:33;;;;;;;24.90;13.77;;;;;;;;;;4934559;28;20023;-63
2022/06/13 08:08:59;;;;;;;23.45;12.20;;;;;;;;;;4951144;28;20023;-63
2022/06/13 08:11:29;;;;;;;22.00;12.15;;;;;;;;;;4951409;29;20092;-64
2022/06/13 08:13:55;;;;;;;23.45;12.18;;;;;;;;;;4951598;29;20027;-63
2022/06/13 08:16:21;;;;;;;23.30;11.60;;;;;;;;;;4951647;28;20448;-64
2022/06/13 08:18:47;;;;;;;21.65;11.77;;;;;;;;;;4950938;29;20031;-64
2022/06/13 08:21:13;;;;;;;21.17;11.52;;;;;;;;;;4934112;28;20028;-64
2022/06/13 08:23:39;;;;;;;20.63;11.23;;;;;;;;;;4951525;29;20069;-64
2022/06/13 08:26:05;;;;;;;21.30;10.57;;;;;;;;;;4951956;28;20499;-64
2022/06/13 08:28:32;;;;;;;19.25;11.18;;;;;;;;;;4933582;28;20096;-63
2022/06/13 08:31:05;;;;;;;25.02;11.35;;;;;;;;;;4952027;28;20104;-64
2022/06/13 08:33:31;;;;;;;22.08;11.55;;;;;;;;;;4934175;28;20054;-58
2022/06/13 08:35:58;;;;;;;23.17;11.65;;;;;;;;;;4951148;28;20506;-57
2022/06/13 08:38:24;;;;;;;22.85;11.48;;;;;;;;;;4950611;29;20114;-56
2022/06/13 08:41:03;;;;;;;18.38;10.60;;;;;;;;;;4949956;28;20391;-58
2022/06/13 08:43:48;;;;;;;21.70;10.60;;;;;;;;;;4951515;29;20023;-61
2022/06/13 08:46:17;;;;;;;22.27;11.35;;;;;;;;;;4934066;28;20149;-62
2022/06/13 08:48:45;;;;;;;20.45;10.95;;;;;;;;;;4950548;28;20031;-63
2022/06/13 08:51:11;;;;;;;21.73;10.98;;;;;;;;;;4950837;28;20493;-59
2022/06/13 08:53:40;;;;;;;23.38;11.77;;;;;;;;;;4933539;28;20122;-62
2022/06/13 08:56:11;;;;;;;20.63;12.25;;;;;;;;;;4950739;29;20035;-62
2022/06/13 08:58:37;;;;;;;20.15;10.77;;;;;;;;;;4934102;28;20368;-61
2022/06/13 09:01:15;;;;;;;19.08;11.25;;;;;;;;;;4950649;28;20028;-60
2022/06/13 09:03:48;;;;;;;21.98;11.70;;;;;;;;;;4933818;28;20511;-61
2022/06/13 09:06:15;;;;;;;20.15;11.90;;;;;;;;;;4950956;29;20071;-60
2022/06/13 09:08:40;;;;;;;18.67;10.70;;;;;;;;;;4602912;28;10000176;-56
2022/06/13 09:11:10;;;;;;;19.13;11.48;;;;;;;;;;4977893;28;20400;-58
2022/06/13 09:13:46;;;;;;;19.52;12.10;;;;;;;;;;4973972;28;20039;-56
2022/06/13 09:16:14;;;;;;;20.02;11.77;;;;;;;;;;4946807;29;20091;-56
2022/06/13 09:19:15;;;;;;;23.27;11.63;;;;;;;;;;4927784;28;20042;-59
2022/06/13 09:21:56;;;;;;;20.75;11.13;;;;;;;;;;4928260;29;20066;-62
2022/06/13 09:24:27;;;;;;;20.83;11.23;;;;;;;;;;4928075;28;20447;-60
2022/06/13 09:26:56;;;;;;;16.75;10.88;;;;;;;;;;4929152;28;20042;-61
2022/06/13 09:29:34;;;;;;;18.17;11.13;;;;;;;;;;4929522;28;20035;-63
2022/06/13 09:32:00;;;;;;;20.77;11.05;;;;;;;;;;4946789;29;20089;-61
2022/06/13 09:34:26;;;;;;;20.58;11.55;;;;;;;;;;4947049;28;20051;-61
2022/06/13 09:36:57;;;;;;;18.15;11.45;;;;;;;;;;4929899;28;20038;-62
2022/06/13 09:39:23;;;;;;;17.88;10.73;;;;;;;;;;4946541;29;20056;-61
2022/06/13 09:42:02;;;;;;;17.85;11.45;;;;;;;;;;4945683;29;20491;-64
2022/06/13 09:44:47;;;;;;;18.02;11.65;;;;;;;;;;4910432;29;20067;-61
2022/06/13 09:47:38;;;;;;;18.98;11.50;;;;;;;;;;4927917;29;20619;-62
2022/06/13 09:50:04;;;;;;;20.65;11.43;;;;;;;;;;4930218;28;20055;-62
2022/06/13 09:52:40;;;;;;;16.77;10.52;;;;;;;;;;4932290;28;20032;-62
2022/06/13 09:55:06;;;;;;;18.80;10.80;;;;;;;;;;4931027;29;20042;-62
2022/06/13 09:57:38;;;;;;;20.27;10.55;;;;;;;;;;4930616;29;20028;-62
2022/06/13 10:00:04;;;;;;;18.55;10.68;;;;;;;;;;4931488;29;20032;-62
2022/06/13 10:02:30;;;;;;;20.10;10.32;;;;;;;;;;4931062;29;20131;-60
2022/06/13 10:05:12;;;;;;;16.60;10.43;;;;;;;;;;4930899;29;20038;-60
2022/06/13 10:07:59;;;;;;;17.40;10.70;;;;;;;;;;4929885;29;20016;-59
2022/06/13 10:10:32;;;;;;;17.67;10.85;;;;;;;;;;4927608;29;20035;-61
2022/06/13 10:13:19;;;;;;;16.63;10.70;;;;;;;;;;4950226;29;20037;-62
2022/06/13 10:15:51;;;;;;;16.58;10.60;;;;;;;;;;4950458;28;20365;-60
2022/06/13 10:18:30;;;;;;;16.33;10.57;;;;;;;;;;4946298;28;20521;-62
2022/06/13 10:20:58;;;;;;;17.73;10.35;;;;;;;;;;4949632;28;20081;-63
2022/06/13 10:23:27;;;;;;;17.13;11.25;;;;;;;;;;4949984;28;20396;-63
2022/06/13 10:29:16;;;;;;;16.80;9.95;;;;;;;;;;4948866;29;20030;-59
2022/06/13 10:32:00;;;;;;;17.80;10.82;;;;;;;;;;4950362;28;20081;-58
2022/06/13 10:34:45;;;;;;;16.88;10.50;;;;;;;;;;4939724;28;20036;-56
2022/06/13 10:37:17;;;;;;;17.08;10.40;;;;;;;;;;4932817;28;20062;-57
2022/06/13 10:39:44;;;;;;;16.25;10.50;;;;;;;;;;4916483;28;20042;-54
2022/06/13 10:42:13;;;;;;;16.88;10.68;;;;;;;;;;4933853;28;20031;-57
2022/06/13 11:03:16;;;;;;;16.52;9.60;;;;;;;;;;4950608;29;20415;-58
2022/06/13 11:05:50;;;;;;;16.77;10.00;;;;;;;;;;4952104;28;20080;-57
2022/06/13 11:08:16;;;;;;;17.02;10.50;;;;;;;;;;4951519;28;20399;-58
2022/06/13 11:10:51;;;;;;;16.85;10.55;;;;;;;;;;4952042;28;20539;-60
2022/06/13 11:13:23;;;;;;;16.70;10.50;;;;;;;;;;4952358;29;20032;-58
2022/06/13 11:27:43;;;;;;;15.57;10.60;;;;;;;;;;4875061;29;20088;-58
2022/06/13 11:30:27;;;;;;;17.02;10.65;;;;;;;;;;4949683;29;20248;-58
2022/06/13 11:33:14;;;;;;;16.40;11.05;;;;;;;;;;4952229;28;20051;-59
2022/06/13 11:35:44;;;;;;;15.57;11.18;;;;;;;;;;4934734;29;20077;-59
2022/06/13 11:38:29;;;;;;;16.63;10.68;;;;;;;;;;4951267;28;20115;-59
2022/06/13 11:41:09;;;;;;;21.35;10.70;;;;;;;;;;4935087;28;20383;-55
2022/06/13 11:43:50;;;;;;;17.27;10.50;;;;;;;;;;4935470;28;20365;-59
2022/06/13 11:46:16;;;;;;;19.13;10.35;;;;;;;;;;4951579;28;20027;-58
2022/06/13 11:48:47;;;;;;;18.48;11.32;;;;;;;;;;4933619;28;20027;-58
2022/06/13 11:51:22;;;;;;;15.65;10.63;;;;;;;;;;4951547;29;20027;-59
2022/06/13 11:53:48;;;;;;;15.45;10.70;;;;;;;;;;4951668;29;20106;-56
2022/06/13 11:56:23;;;;;;;16.88;10.60;;;;;;;;;;4951653;28;20035;-56
2022/06/13 11:58:50;;;;;;;15.13;10.30;;;;;;;;;;4951257;29;20032;-55
2022/06/13 12:01:19;;;;;;;15.10;10.63;;;;;;;;;;4951946;28;20077;-57
2022/06/13 12:03:58;;;;;;;16.13;10.65;;;;;;;;;;4951680;29;20361;-58
2022/06/13 12:06:24;;;;;;;16.00;10.68;;;;;;;;;;4951678;29;20023;-58
2022/06/13 12:08:51;;;;;;;15.07;10.40;;;;;;;;;;4950903;28;20031;-58
2022/06/13 12:11:17;;;;;;;16.38;10.82;;;;;;;;;;4951513;28;20110;-57
2022/06/13 12:13:44;;;;;;;15.52;10.85;;;;;;;;;;4951744;28;20027;-58
2022/06/13 12:16:17;;;;;;;14.90;10.10;;;;;;;;;;4934209;28;20035;-55
2022/06/13 12:18:52;;;;;;;16.83;10.15;;;;;;;;;;4950877;28;20035;-57
2022/06/13 12:21:36;;;;;;;16.50;10.15;;;;;;;;;;4951407;29;20106;-57
2022/06/13 12:24:21;;;;;;;15.52;9.70;;;;;;;;;;4952225;29;20399;-59
2022/06/13 12:26:52;;;;;;;14.82;9.73;;;;;;;;;;4934076;28;20098;-58
2022/06/13 12:29:30;;;;;;;16.10;10.48;;;;;;;;;;4950752;29;20500;-55
2022/06/13 12:31:57;;;;;;;16.10;10.23;;;;;;;;;;4252273;29;10000310;-54
2022/06/13 12:34:22;;;;;;;16.20;10.38;;;;;;;;;;4932046;28;20055;-57
2022/06/13 12:36:51;;;;;;;16.92;10.50;;;;;;;;;;4914167;28;20074;-54
2022/06/13 12:39:36;;;;;;;16.85;10.27;;;;;;;;;;4931667;28;20054;-57
2022/06/13 12:42:05;;;;;;;15.45;10.35;;;;;;;;;;4915172;28;20043;-56
2022/06/13 12:44:31;;;;;;;15.82;10.32;;;;;;;;;;4915255;28;20047;-57
2022/06/13 12:47:00;;;;;;;16.50;10.40;;;;;;;;;;4915005;28;20396;-56
2022/06/13 12:49:29;;;;;;;17.05;10.63;;;;;;;;;;4931155;29;20074;-53
2022/06/13 12:51:55;;;;;;;15.57;10.18;;;;;;;;;;4932367;29;20350;-54
2022/06/13 12:54:21;;;;;;;15.45;9.93;;;;;;;;;;4931748;29;20120;-58
2022/06/13 12:56:53;;;;;;;16.65;10.50;;;;;;;;;;4931551;29;20027;-57
2022/06/13 12:59:37;;;;;;;15.68;10.20;;;;;;;;;;4913853;28;20028;-59
2022/06/13 13:02:03;;;;;;;16.30;10.77;;;;;;;;;;4931420;29;20507;-56
2022/06/13 13:04:48;;;;;;;18.17;10.43;;;;;;;;;;4930215;28;20396;-56
2022/06/13 13:07:23;;;;;;;15.73;10.20;;;;;;;;;;4948579;29;20027;-57
2022/06/13 13:10:04;;;;;;;14.93;9.80;;;;;;;;;;4947337;29;20071;-55
2022/06/13 13:12:49;;;;;;;15.65;9.48;;;;;;;;;;4931557;29;20511;-57
2022/06/13 13:15:34;;;;;;;16.38;10.00;;;;;;;;;;4932432;29;20042;-60
2022/06/13 13:18:00;;;;;;;15.77;10.20;;;;;;;;;;4950013;28;20104;-59
2022/06/13 13:20:37;;;;;;;17.55;10.70;;;;;;;;;;4950473;28;20494;-59
2022/06/13 13:23:25;;;;;;;17.85;10.60;;;;;;;;;;4920682;28;20126;-59
2022/06/13 13:26:08;;;;;;;17.10;10.32;;;;;;;;;;4933680;29;20035;-58
2022/06/13 13:28:53;;;;;;;15.60;10.95;;;;;;;;;;4936389;29;20112;-58
2022/06/13 13:31:22;;;;;;;16.05;10.27;;;;;;;;;;4932881;29;20031;-58
2022/06/13 13:33:51;;;;;;;15.95;9.98;;;;;;;;;;4934186;29;20039;-58
2022/06/13 13:36:27;;;;;;;16.35;9.93;;;;;;;;;;4955527;23;20523;-64
2022/06/13 13:38:57;;;;;;;16.20;9.77;;;;;;;;;;4931051;29;20027;-62
2022/06/13 13:41:23;;;;;;;17.50;10.57;;;;;;;;;;4931444;28;20042;-61
2022/06/13 13:43:49;;;;;;;16.45;10.50;;;;;;;;;;4931145;29;20027;-62
2022/06/13 13:46:24;;;;;;;14.60;10.02;;;;;;;;;;4931049;29;20032;-61
2022/06/13 13:49:05;;;;;;;14.90;10.60;;;;;;;;;;4913664;29;20035;-62
2022/06/13 13:51:31;;;;;;;15.55;10.52;;;;;;;;;;4913978;29;20088;-63
2022/06/13 13:54:01;;;;;;;18.00;10.90;;;;;;;;;;4914495;29;20043;-62
2022/06/13 13:56:27;;;;;;;19.92;11.15;;;;;;;;;;4913813;29;20109;-62
2022/06/13 13:58:54;;;;;;;16.15;10.45;;;;;;;;;;4930500;28;20028;-61
2022/06/13 14:01:33;;;;;;;16.73;9.63;;;;;;;;;;4931249;29;20032;-61
2022/06/13 14:03:58;;;;;;;;;;;;;;;;;;4914435;28;20036;-61
2022/06/13 14:06:25;;;;;;;15.68;10.05;;;;;;;;;;4917286;29;19969;-59
2022/06/13 14:08:53;;;;;;;16.25;10.80;;;;;;;;;;4910899;29;20036;-57
2022/06/13 14:11:19;;;;;;;16.73;10.88;;;;;;;;;;4911508;29;20071;-59
2022/06/13 14:13:46;;;;;;;15.45;9.85;;;;;;;;;;4920550;29;20028;-60
2022/06/13 14:16:34;;;;;;;16.75;10.30;;;;;;;;;;4930655;29;20043;-60
2022/06/13 14:19:17;;;;;;;15.82;10.68;;;;;;;;;;4913294;29;20035;-62
2022/06/13 14:21:43;;;;;;;16.75;11.02;;;;;;;;;;4913895;29;20500;-59
2022/06/13 14:24:19;;;;;;;17.17;11.10;;;;;;;;;;4929459;29;20034;-59
2022/06/13 14:26:47;;;;;;;15.20;10.95;;;;;;;;;;4913254;29;20036;-61
2022/06/13 14:29:28;;;;;;;16.40;10.80;;;;;;;;;;4589079;28;10000288;-62
2022/06/13 14:31:55;;;;;;;14.90;10.25;;;;;;;;;;4930869;28;20584;-62
2022/06/13 14:37:24;;;;;;;14.50;10.15;;;;;;;;;;4930434;29;20113;-59
2022/06/13 14:39:59;;;;;;;15.80;10.50;;;;;;;;;;4931726;28;20119;-63
2022/06/13 14:42:30;;;;;;;14.85;10.13;;;;;;;;;;4573740;28;10000433;-58
2022/06/13 14:45:15;;;;;;;16.52;11.07;;;;;;;;;;4930956;28;20131;-60
2022/06/13 14:47:41;;;;;;;15.23;10.48;;;;;;;;;;4930028;28;20042;-57
2022/06/13 14:50:07;;;;;;;17.48;10.52;;;;;;;;;;4930500;28;20519;-60
2022/06/13 14:52:33;;;;;;;15.75;10.30;;;;;;;;;;4930702;28;20037;-59
2022/06/13 14:55:02;;;;;;;16.38;10.50;;;;;;;;;;4930098;28;20034;-63
2022/06/13 14:57:28;;;;;;;17.42;10.77;;;;;;;;;;4929926;28;20067;-60
2022/06/13 15:00:00;;;;;;;16.30;10.75;;;;;;;;;;4930299;28;20063;-61
2022/06/13 15:02:27;;;;;;;16.55;11.40;;;;;;;;;;4930206;28;20039;-61
2022/06/13 15:05:11;;;;;;;15.75;11.50;;;;;;;;;;4927914;28;20024;-60
2022/06/13 15:08:03;;;;;;;16.80;11.43;;;;;;;;;;4908914;29;20032;-59
2022/06/13 15:10:32;;;;;;;16.88;11.55;;;;;;;;;;4892315;29;20397;-58
2022/06/13 15:12:59;;;;;;;16.58;11.95;;;;;;;;;;4913578;29;20032;-61
2022/06/13 15:15:28;;;;;;;17.30;11.32;;;;;;;;;;4930281;29;20032;-59
2022/06/13 15:17:56;;;;;;;17.45;11.00;;;;;;;;;;4930148;29;20028;-62
2022/06/13 15:20:28;;;;;;;17.15;10.98;;;;;;;;;;4932739;29;20051;-60
2022/06/13 15:22:57;;;;;;;16.23;11.40;;;;;;;;;;4915821;29;20455;-59
2022/06/13 15:25:38;;;;;;;15.80;10.35;;;;;;;;;;4915772;29;20031;-61
2022/06/13 15:28:06;;;;;;;16.52;10.45;;;;;;;;;;4914628;29;20123;-63
2022/06/13 15:30:32;;;;;;;17.15;10.85;;;;;;;;;;4915150;29;20016;-64